createdAt,value
2019-04-04T00:02:14.532Z,96962.87
2019-04-04T00:07:19.876Z,96953.56
2019-04-04T00:12:25.147Z,96963.69
2019-04-04T00:17:30.433Z,96979.51
2019-04-04T00:22:35.917Z,96981.94
2019-04-04T00:27:43.684Z,96992.88
2019-04-04T00:32:48.195Z,96998.03
2019-04-04T00:37:53.454Z,96977.68
2019-04-04T00:42:58.739Z,96970.06
2019-04-04T00:48:06.486Z,96960.01
2019-04-04T00:53:12.313Z,96960.64
2019-04-04T00:58:18.931Z,96947.11
2019-04-04T01:03:25.663Z,96953.24
2019-04-04T01:08:31.034Z,96947.00
2019-04-04T01:13:36.488Z,96952.48
2019-04-04T01:18:41.795Z,96973.83
2019-04-04T01:23:47.109Z,96970.95
2019-04-04T01:28:52.545Z,96950.75
2019-04-04T01:33:57.826Z,96939.19
2019-04-04T01:39:05.092Z,96932.69
2019-04-04T01:44:11.269Z,96899.13
2019-04-04T01:49:19.087Z,96862.33
2019-04-04T01:54:24.294Z,96851.98
2019-04-04T01:59:29.840Z,96862.02
2019-04-04T02:04:35.178Z,96875.25
2019-04-04T02:09:43.282Z,96871.36
2019-04-04T02:14:47.866Z,96843.73
2019-04-04T02:19:55.582Z,96840.24
2019-04-04T02:25:02.814Z,96834.31
2019-04-04T02:30:08.282Z,96851.76
2019-04-04T02:35:13.662Z,96901.41
2019-04-04T02:40:19.485Z,96872.44
2019-04-04T02:45:24.900Z,96882.33
2019-04-04T02:50:34.351Z,96868.29
2019-04-04T02:55:37.854Z,96836.64
2019-04-04T03:00:43.832Z,96821.50
2019-04-04T03:05:51.967Z,96801.73
2019-04-04T03:10:56.042Z,96841.84
2019-04-04T03:16:01.391Z,96855.24
2019-04-04T03:21:06.877Z,96856.91
2019-04-04T03:26:12.135Z,96877.55
2019-04-04T03:31:17.572Z,96857.55
2019-04-04T03:36:22.856Z,96837.94
2019-04-04T03:41:30.641Z,96839.36
2019-04-04T03:46:38.834Z,96846.25
2019-04-04T03:51:42.549Z,96836.86
2019-04-04T03:56:47.803Z,96834.12
2019-04-04T04:01:53.559Z,96820.80
2019-04-04T04:06:58.838Z,96804.55
2019-04-04T04:12:04.465Z,96788.59
2019-04-04T04:17:11.644Z,96773.14
2019-04-04T04:22:19.224Z,96769.13
2019-04-04T04:27:25.046Z,96757.35
2019-04-04T04:32:30.733Z,96747.45
2019-04-04T04:37:36.001Z,96739.94
2019-04-04T04:42:41.258Z,96750.39
2019-04-04T04:47:46.578Z,96741.30
2019-04-04T04:52:52.025Z,96760.15
2019-04-04T04:57:57.269Z,96757.64
2019-04-04T05:03:03.374Z,96783.56
2019-04-04T05:08:10.122Z,96770.83
2019-04-04T05:13:15.889Z,96809.95
2019-04-04T05:18:21.563Z,96785.09
2019-04-04T05:23:26.867Z,96770.80
2019-04-04T05:28:32.087Z,96780.02
2019-04-04T05:33:37.399Z,96766.83
2019-04-04T05:38:43.907Z,96785.05
2019-04-04T05:43:50.222Z,96790.33
2019-04-04T05:48:59.375Z,96806.48
2019-04-04T05:54:07.141Z,96815.95
2019-04-04T05:59:11.164Z,96825.98
2019-04-04T06:04:17.259Z,96825.90
2019-04-04T06:09:23.651Z,96822.87
2019-04-04T06:14:29.999Z,96814.59
2019-04-04T06:19:36.031Z,96816.99
2019-04-04T06:24:41.479Z,96815.54
2019-04-04T06:29:47.912Z,96820.33
2019-04-04T06:34:56.541Z,96826.81
2019-04-04T06:40:01.022Z,96826.59
2019-04-04T06:45:07.231Z,96831.42
2019-04-04T06:50:12.859Z,96834.84
2019-04-04T06:55:18.514Z,96830.30
2019-04-04T07:00:23.847Z,96834.03
2019-04-04T07:05:29.824Z,96833.18
2019-04-04T07:10:35.234Z,96833.77
2019-04-04T07:15:46.613Z,96852.39
2019-04-04T07:20:48.394Z,96843.25
2019-04-04T07:25:54.261Z,96835.48
2019-04-04T07:31:01.758Z,96843.58
2019-04-04T07:36:07.302Z,96834.30
2019-04-04T07:41:14.796Z,96824.95
2019-04-04T07:46:19.958Z,96831.45
2019-04-04T07:51:25.189Z,96847.23
2019-04-04T07:56:35.737Z,96854.73
2019-04-04T08:01:50.843Z,96864.32
2019-04-04T08:06:51.392Z,96867.38
2019-04-04T08:11:56.743Z,96859.73
2019-04-04T08:17:02.619Z,96869.05
2019-04-04T08:22:08.166Z,96871.24
2019-04-04T08:27:19.246Z,96868.33
2019-04-04T08:32:30.139Z,96867.15
2019-04-04T08:37:36.120Z,96869.09
2019-04-04T08:42:41.442Z,96869.16
2019-04-04T08:47:46.807Z,96865.54
2019-04-04T08:52:52.048Z,96862.78
2019-04-04T08:57:57.336Z,96858.06
2019-04-04T09:03:02.690Z,96857.33
2019-04-04T09:08:08.283Z,96855.02
2019-04-04T09:13:13.663Z,96842.48
2019-04-04T09:18:18.914Z,96854.22
2019-04-04T09:23:24.417Z,96861.63
2019-04-04T09:28:29.988Z,96875.93
2019-04-04T09:33:35.606Z,96868.28
2019-04-04T09:38:41.003Z,96861.05
2019-04-04T09:43:46.357Z,96870.70
2019-04-04T09:48:51.776Z,96869.73
2019-04-04T09:53:57.451Z,96870.14
2019-04-04T09:59:03.076Z,96866.30
2019-04-04T10:04:08.746Z,96849.32
2019-04-04T10:09:16.111Z,96832.09
2019-04-04T10:14:21.184Z,96818.00
2019-04-04T10:19:26.471Z,96823.07
2019-04-04T10:24:31.762Z,96824.42
2019-04-04T10:29:37.035Z,96823.70
2019-04-04T10:34:42.501Z,96833.73
2019-04-04T10:39:48.606Z,96848.84
2019-04-04T10:44:54.556Z,96865.35
2019-04-04T10:50:00.132Z,96876.33
2019-04-04T10:55:07.800Z,96880.48
2019-04-04T11:00:13.636Z,96882.63
2019-04-04T11:05:19.384Z,96880.57
2019-04-04T11:10:24.715Z,96897.17
2019-04-04T11:15:30.067Z,96905.18
2019-04-04T11:20:35.403Z,96912.88
2019-04-04T11:25:40.638Z,96900.28
2019-04-04T11:30:45.848Z,96903.52
2019-04-04T11:35:51.111Z,96903.08
2019-04-04T11:40:56.460Z,96911.34
2019-04-04T11:46:06.249Z,96915.88
2019-04-04T11:51:12.454Z,96925.99
2019-04-04T11:56:17.668Z,96924.72
2019-04-04T12:01:23.712Z,96912.96
2019-04-04T12:06:29.005Z,96909.49
2019-04-04T12:11:34.278Z,96895.16
2019-04-04T12:16:39.585Z,96896.69
2019-04-04T12:21:44.935Z,96900.63
2019-04-04T12:26:50.174Z,96890.84
2019-04-04T12:31:55.573Z,96905.45
2019-04-04T12:37:01.187Z,96902.94
2019-04-04T12:42:06.557Z,96907.77
2019-04-04T12:47:11.858Z,96925.84
2019-04-04T12:52:17.199Z,96934.30
2019-04-04T12:57:23.079Z,96935.48
2019-04-04T13:02:28.395Z,96942.23
2019-04-04T13:07:34.099Z,96927.29
2019-04-04T13:12:39.547Z,96947.02
2019-04-04T13:17:45.261Z,96969.54
2019-04-04T13:22:50.546Z,96972.48
2019-04-04T13:27:55.991Z,96969.20
2019-04-04T13:33:01.239Z,96976.00
2019-04-04T13:38:07.757Z,96974.17
2019-04-04T13:43:13.082Z,96990.63
2019-04-04T13:48:18.362Z,97011.72
2019-04-04T13:53:25.557Z,97011.94
2019-04-04T13:58:30.860Z,97008.50
2019-04-04T14:03:36.448Z,96995.95
2019-04-04T14:08:41.873Z,96978.57
2019-04-04T14:13:49.457Z,96974.23
2019-04-04T14:18:55.679Z,96999.86
2019-04-04T14:24:12.312Z,97023.06
2019-04-04T14:29:09.819Z,97039.94
2019-04-04T14:34:18.030Z,97043.79
2019-04-04T14:39:25.858Z,97039.41
2019-04-04T14:44:36.102Z,97015.84
2019-04-04T14:49:45.911Z,97011.52
2019-04-04T14:54:50.848Z,97003.93
2019-04-04T14:59:56.212Z,97007.90
2019-04-04T15:05:01.588Z,97017.60
2019-04-04T15:10:07.527Z,97041.83
2019-04-04T15:15:13.442Z,97049.61
2019-04-04T15:20:19.626Z,97027.79
2019-04-04T15:25:25.533Z,97035.72
2019-04-04T15:30:31.175Z,97055.75
2019-04-04T15:35:36.455Z,97060.22
2019-04-04T15:40:42.070Z,97067.50
2019-04-04T15:45:47.360Z,97060.43
2019-04-04T15:50:53.346Z,97053.51
2019-04-04T15:55:58.873Z,97057.45
2019-04-04T16:01:04.299Z,97054.78
2019-04-04T16:06:10.035Z,97092.01
2019-04-04T16:11:15.785Z,97108.85
2019-04-04T16:16:21.475Z,97113.95
2019-04-04T16:21:27.348Z,97102.70
2019-04-04T16:26:32.926Z,97102.32
2019-04-04T16:31:38.629Z,97105.32
2019-04-04T16:36:44.234Z,97102.75
2019-04-04T16:42:01.502Z,97117.39
2019-04-04T16:46:57.732Z,97116.30
2019-04-04T16:52:07.353Z,97109.94
2019-04-04T16:57:13.388Z,97110.91
2019-04-04T17:02:18.755Z,97104.71
2019-04-04T17:07:24.214Z,97103.24
2019-04-04T17:12:29.732Z,97126.00
2019-04-04T17:17:35.140Z,97111.95
2019-04-04T17:22:40.523Z,97122.31
2019-04-04T17:27:45.759Z,97141.02
2019-04-04T17:32:51.911Z,97151.33
2019-04-04T17:37:57.735Z,97169.23
2019-04-04T17:43:03.719Z,97167.99
2019-04-04T17:48:09.601Z,97176.55
2019-04-04T17:53:15.524Z,97192.13
2019-04-04T17:58:21.928Z,97221.75
2019-04-04T18:03:27.716Z,97223.84
2019-04-04T18:08:33.039Z,97219.23
2019-04-04T18:13:38.361Z,97215.53
2019-04-04T18:18:43.759Z,97209.69
2019-04-04T18:23:49.207Z,97210.39
2019-04-04T18:28:54.501Z,97210.31
2019-04-04T18:33:59.866Z,97217.33
2019-04-04T18:39:07.708Z,97218.84
2019-04-04T18:44:13.418Z,97220.05
2019-04-04T18:49:18.665Z,97242.46
2019-04-04T18:54:24.361Z,97254.05
2019-04-04T18:59:29.607Z,97267.16
2019-04-04T19:04:34.846Z,97279.41
2019-04-04T19:09:40.237Z,97281.08
2019-04-04T19:14:45.498Z,97273.03
2019-04-04T19:19:51.569Z,97271.82
2019-04-04T19:24:57.025Z,97280.49
2019-04-04T19:30:02.420Z,97266.28
2019-04-04T19:35:08.641Z,97253.20
2019-04-04T19:40:14.947Z,97268.22
2019-04-04T19:45:21.394Z,97288.88
2019-04-04T19:50:28.043Z,97299.69
2019-04-04T19:55:33.560Z,97310.70
2019-04-04T20:00:38.806Z,97301.38
2019-04-04T20:05:44.565Z,97315.73
2019-04-04T20:10:50.408Z,97309.47
2019-04-04T20:16:00.274Z,97310.80
2019-04-04T20:21:05.603Z,97281.70
2019-04-04T20:26:11.325Z,97295.10
2019-04-04T20:31:16.757Z,97312.59
2019-04-04T20:36:22.215Z,97315.58
2019-04-04T20:41:27.674Z,97304.30
2019-04-04T20:46:32.986Z,97306.47
2019-04-04T20:51:40.705Z,97285.31
2019-04-04T20:56:45.983Z,97302.59
2019-04-04T21:01:51.566Z,97318.22
2019-04-04T21:06:57.535Z,97336.48
2019-04-04T21:12:03.224Z,97341.58
2019-04-04T21:17:09.054Z,97341.67
2019-04-04T21:22:26.627Z,97347.75
2019-04-04T21:27:21.322Z,97347.93
2019-04-04T21:32:26.537Z,97340.23
2019-04-04T21:37:32.967Z,97348.41
2019-04-04T21:42:38.338Z,97342.88
2019-04-04T21:47:44.083Z,97345.99
2019-04-04T21:52:49.337Z,97352.95
2019-04-04T21:57:54.679Z,97360.80
2019-04-04T22:02:59.978Z,97364.77
2019-04-04T22:08:05.510Z,97363.34
2019-04-04T22:13:10.992Z,97352.77
2019-04-04T22:18:16.248Z,97365.55
2019-04-04T22:23:23.030Z,97377.07
2019-04-04T22:28:28.262Z,97382.13
2019-04-04T22:33:33.558Z,97378.80
2019-04-04T22:38:39.141Z,97368.34
2019-04-04T22:43:44.569Z,97376.55
2019-04-04T22:48:49.822Z,97369.37
2019-04-04T22:53:55.054Z,97372.52
2019-04-04T22:59:00.463Z,97374.64
2019-04-04T23:04:05.885Z,97374.52
2019-04-04T23:09:11.146Z,97373.41
2019-04-04T23:14:16.966Z,97387.32
2019-04-04T23:19:22.369Z,97389.08
2019-04-04T23:24:27.704Z,97388.63
2019-04-04T23:29:33.188Z,97398.60
2019-04-04T23:34:38.867Z,97398.30
2019-04-04T23:39:44.107Z,97411.67
2019-04-04T23:45:00.313Z,97421.42
2019-04-04T23:49:57.018Z,97424.59
2019-04-04T23:55:02.376Z,97425.09
